sensor_id;sensor_type;location;lat;lon;timestamp;pressure;altitude;pressure_sealevel;temperature;humidity
44934;BME280;30667;43.614;1.442;2022-12-18T00:01:37;100677.41;;;5.42;100.00
44934;BME280;30667;43.614;1.442;2022-12-18T00:04:04;100677.31;;;5.49;100.00
44934;BME280;30667;43.614;1.442;2022-12-18T00:06:30;100677.09;;;5.50;100.00
44934;BME280;30667;43.614;1.442;2022-12-18T00:08:59;100675.25;;;5.51;100.00
44934;BME280;30667;43.614;1.442;2022-12-18T00:11:27;100671.94;;;5.49;100.00
44934;BME280;30667;43.614;1.442;2022-12-18T00:13:55;100669.25;;;5.49;100.00
44934;BME280;30667;43.614;1.442;2022-12-18T00:16:22;100668.91;;;5.45;100.00
44934;BME280;30667;43.614;1.442;2022-12-18T00:18:49;100668.69;;;5.46;100.00
44934;BME280;30667;43.614;1.442;2022-12-18T00:21:18;100676.25;;;5.38;100.00
44934;BME280;30667;43.614;1.442;2022-12-18T00:23:45;100672.03;;;5.42;100.00
44934;BME280;30667;43.614;1.442;2022-12-18T00:26:13;100670.66;;;5.39;100.00
44934;BME280;30667;43.614;1.442;2022-12-18T00:28:40;100666.31;;;5.38;100.00
44934;BME280;30667;43.614;1.442;2022-12-18T00:31:08;100667.97;;;5.39;100.00
44934;BME280;30667;43.614;1.442;2022-12-18T00:33:35;100670.88;;;5.38;100.00
44934;BME280;30667;43.614;1.442;2022-12-18T00:36:05;100668.41;;;5.36;100.00
44934;BME280;30667;43.614;1.442;2022-12-18T00:38:31;100670.66;;;5.39;100.00
44934;BME280;30667;43.614;1.442;2022-12-18T00:40:57;100670.03;;;5.37;100.00
44934;BME280;30667;43.614;1.442;2022-12-18T00:43:22;100667.81;;;5.34;100.00
44934;BME280;30667;43.614;1.442;2022-12-18T00:45:48;100659.75;;;5.34;100.00
44934;BME280;30667;43.614;1.442;2022-12-18T00:48:13;100665.13;;;5.34;100.00
44934;BME280;30667;43.614;1.442;2022-12-18T00:50:39;100664.53;;;5.32;100.00
44934;BME280;30667;43.614;1.442;2022-12-18T00:53:04;100667.44;;;5.31;100.00
44934;BME280;30667;43.614;1.442;2022-12-18T00:55:29;100673.63;;;5.31;100.00
44934;BME280;30667;43.614;1.442;2022-12-18T00:57:55;100672.38;;;5.34;100.00
44934;BME280;30667;43.614;1.442;2022-12-18T01:00:20;100676.31;;;5.31;100.00
44934;BME280;30667;43.614;1.442;2022-12-18T01:02:46;100689.13;;;5.29;100.00
44934;BME280;30667;43.614;1.442;2022-12-18T01:05:12;100697.41;;;5.27;100.00
44934;BME280;30667;43.614;1.442;2022-12-18T01:07:38;100700.19;;;5.21;100.00
44934;BME280;30667;43.614;1.442;2022-12-18T01:10:04;100712.78;;;5.20;100.00
44934;BME280;30667;43.614;1.442;2022-12-18T01:12:30;100711.81;;;5.15;100.00
44934;BME280;30667;43.614;1.442;2022-12-18T01:14:55;100721.78;;;5.26;100.00
44934;BME280;30667;43.614;1.442;2022-12-18T01:17:21;100722.75;;;5.32;100.00
44934;BME280;30667;43.614;1.442;2022-12-18T01:19:46;100718.97;;;5.21;100.00
44934;BME280;30667;43.614;1.442;2022-12-18T01:22:12;100719.78;;;5.21;100.00
44934;BME280;30667;43.614;1.442;2022-12-18T01:24:37;100723.28;;;5.22;100.00
44934;BME280;30667;43.614;1.442;2022-12-18T01:27:03;100729.56;;;5.16;100.00
44934;BME280;30667;43.614;1.442;2022-12-18T01:29:28;100732.53;;;5.07;100.00
44934;BME280;30667;43.614;1.442;2022-12-18T01:31:55;100734.53;;;5.12;100.00
44934;BME280;30667;43.614;1.442;2022-12-18T01:34:21;100730.75;;;5.01;100.00
44934;BME280;30667;43.614;1.442;2022-12-18T01:36:47;100734.22;;;5.02;100.00
44934;BME280;30667;43.614;1.442;2022-12-18T01:39:13;100740.25;;;4.97;100.00
44934;BME280;30667;43.614;1.442;2022-12-18T01:41:40;100743.16;;;4.96;100.00
44934;BME280;30667;43.614;1.442;2022-12-18T01:50:02;100745.13;;;4.88;100.00
44934;BME280;30667;43.614;1.442;2022-12-18T01:52:31;100739.13;;;4.86;100.00
44934;BME280;30667;43.614;1.442;2022-12-18T01:55:00;100740.41;;;4.84;100.00
44934;BME280;30667;43.614;1.442;2022-12-18T01:57:28;100740.84;;;4.81;100.00
44934;BME280;30667;43.614;1.442;2022-12-18T01:59:57;100737.63;;;4.72;100.00
44934;BME280;30667;43.614;1.442;2022-12-18T02:02:26;100744.84;;;4.71;100.00
44934;BME280;30667;43.614;1.442;2022-12-18T02:04:52;100750.44;;;4.70;100.00
44934;BME280;30667;43.614;1.442;2022-12-18T02:10:02;100762.38;;;4.74;100.00
44934;BME280;30667;43.614;1.442;2022-12-18T02:12:42;100757.44;;;4.71;100.00
44934;BME280;30667;43.614;1.442;2022-12-18T02:15:48;100766.28;;;4.71;100.00
44934;BME280;30667;43.614;1.442;2022-12-18T02:18:13;100764.66;;;4.70;100.00
44934;BME280;30667;43.614;1.442;2022-12-18T02:27:03;100769.84;;;4.65;100.00
44934;BME280;30667;43.614;1.442;2022-12-18T02:29:34;100783.91;;;4.61;100.00
44934;BME280;30667;43.614;1.442;2022-12-18T02:32:05;100778.78;;;4.59;100.00
44934;BME280;30667;43.614;1.442;2022-12-18T02:34:37;100785.41;;;4.57;100.00
44934;BME280;30667;43.614;1.442;2022-12-18T02:37:05;100781.50;;;4.52;100.00
44934;BME280;30667;43.614;1.442;2022-12-18T02:39:34;100779.03;;;4.51;100.00
44934;BME280;30667;43.614;1.442;2022-12-18T02:42:01;100785.69;;;4.48;100.00
44934;BME280;30667;43.614;1.442;2022-12-18T02:44:34;100790.78;;;4.50;100.00
44934;BME280;30667;43.614;1.442;2022-12-18T02:47:01;100788.78;;;4.45;100.00
44934;BME280;30667;43.614;1.442;2022-12-18T03:01:03;100780.53;;;4.47;100.00
44934;BME280;30667;43.614;1.442;2022-12-18T03:03:38;100783.66;;;4.44;100.00
44934;BME280;30667;43.614;1.442;2022-12-18T03:06:12;100773.16;;;4.42;100.00
44934;BME280;30667;43.614;1.442;2022-12-18T03:08:44;100769.47;;;4.36;100.00
44934;BME280;30667;43.614;1.442;2022-12-18T03:11:13;100776.91;;;4.34;100.00
44934;BME280;30667;43.614;1.442;2022-12-18T03:13:43;100772.75;;;4.39;100.00
44934;BME280;30667;43.614;1.442;2022-12-18T03:16:23;100772.97;;;4.37;100.00
44934;BME280;30667;43.614;1.442;2022-12-18T03:19:07;100765.34;;;4.34;100.00
44934;BME280;30667;43.614;1.442;2022-12-18T03:21:43;100761.88;;;4.33;100.00
44934;BME280;30667;43.614;1.442;2022-12-18T03:24:10;100761.72;;;4.28;100.00
44934;BME280;30667;43.614;1.442;2022-12-18T03:26:40;100757.81;;;4.24;100.00
44934;BME280;30667;43.614;1.442;2022-12-18T03:29:10;100753.34;;;4.18;100.00
44934;BME280;30667;43.614;1.442;2022-12-18T03:31:40;100749.41;;;4.21;100.00
44934;BME280;30667;43.614;1.442;2022-12-18T03:34:15;100744.84;;;4.21;100.00
44934;BME280;30667;43.614;1.442;2022-12-18T03:36:43;100747.75;;;4.19;100.00
44934;BME280;30667;43.614;1.442;2022-12-18T03:39:09;100735.63;;;4.17;100.00
44934;BME280;30667;43.614;1.442;2022-12-18T03:41:44;100728.41;;;4.17;100.00
44934;BME280;30667;43.614;1.442;2022-12-18T03:44:20;100732.13;;;4.16;100.00
44934;BME280;30667;43.614;1.442;2022-12-18T03:47:15;100737.09;;;4.13;100.00
44934;BME280;30667;43.614;1.442;2022-12-18T03:55:41;100734.41;;;4.13;100.00
44934;BME280;30667;43.614;1.442;2022-12-18T03:58:09;100734.63;;;4.11;100.00
44934;BME280;30667;43.614;1.442;2022-12-18T04:00:36;100737.94;;;4.07;100.00
44934;BME280;30667;43.614;1.442;2022-12-18T04:03:04;100742.28;;;4.08;100.00
44934;BME280;30667;43.614;1.442;2022-12-18T04:05:33;100738.38;;;4.04;100.00
44934;BME280;30667;43.614;1.442;2022-12-18T04:08:00;100730.53;;;4.09;100.00
44934;BME280;30667;43.614;1.442;2022-12-18T04:10:26;100721.06;;;4.06;100.00
44934;BME280;30667;43.614;1.442;2022-12-18T04:12:55;100720.09;;;4.00;100.00
44934;BME280;30667;43.614;1.442;2022-12-18T04:15:21;100721.16;;;3.93;100.00
44934;BME280;30667;43.614;1.442;2022-12-18T04:17:48;100718.09;;;3.89;100.00
44934;BME280;30667;43.614;1.442;2022-12-18T04:20:14;100715.81;;;3.93;100.00
44934;BME280;30667;43.614;1.442;2022-12-18T04:22:40;100721.97;;;3.93;100.00
44934;BME280;30667;43.614;1.442;2022-12-18T04:25:05;100719.34;;;3.87;100.00
44934;BME280;30667;43.614;1.442;2022-12-18T04:27:31;100714.59;;;3.89;100.00
44934;BME280;30667;43.614;1.442;2022-12-18T04:29:56;100712.94;;;3.94;100.00
44934;BME280;30667;43.614;1.442;2022-12-18T04:32:22;100706.34;;;3.90;100.00
44934;BME280;30667;43.614;1.442;2022-12-18T04:34:47;100714.84;;;3.80;100.00
44934;BME280;30667;43.614;1.442;2022-12-18T04:37:12;100716.19;;;3.64;100.00
44934;BME280;30667;43.614;1.442;2022-12-18T04:39:38;100719.88;;;3.63;100.00
44934;BME280;30667;43.614;1.442;2022-12-18T04:42:03;100720.13;;;3.55;100.00
44934;BME280;30667;43.614;1.442;2022-12-18T04:44:29;100724.88;;;3.53;100.00
44934;BME280;30667;43.614;1.442;2022-12-18T04:46:54;100722.63;;;3.50;100.00
44934;BME280;30667;43.614;1.442;2022-12-18T04:49:21;100734.56;;;3.48;100.00
44934;BME280;30667;43.614;1.442;2022-12-18T04:51:46;100734.78;;;3.46;100.00
44934;BME280;30667;43.614;1.442;2022-12-18T04:54:11;100723.88;;;3.48;100.00
44934;BME280;30667;43.614;1.442;2022-12-18T04:56:37;100727.19;;;3.50;100.00
44934;BME280;30667;43.614;1.442;2022-12-18T04:59:02;100726.34;;;3.49;100.00
44934;BME280;30667;43.614;1.442;2022-12-18T05:01:27;100738.09;;;3.48;100.00
44934;BME280;30667;43.614;1.442;2022-12-18T05:03:53;100746.13;;;3.48;100.00
44934;BME280;30667;43.614;1.442;2022-12-18T05:06:18;100760.94;;;3.44;100.00
44934;BME280;30667;43.614;1.442;2022-12-18T05:08:44;100759.75;;;3.26;100.00
44934;BME280;30667;43.614;1.442;2022-12-18T05:11:12;100769.69;;;3.19;100.00
44934;BME280;30667;43.614;1.442;2022-12-18T05:13:40;100775.41;;;3.23;100.00
44934;BME280;30667;43.614;1.442;2022-12-18T05:16:07;100775.66;;;3.15;100.00
44934;BME280;30667;43.614;1.442;2022-12-18T05:18:33;100773.22;;;3.06;100.00
44934;BME280;30667;43.614;1.442;2022-12-18T05:20:59;100787.00;;;2.90;100.00
44934;BME280;30667;43.614;1.442;2022-12-18T05:23:24;100795.25;;;2.75;100.00
44934;BME280;30667;43.614;1.442;2022-12-18T05:28:17;100804.69;;;2.71;100.00
44934;BME280;30667;43.614;1.442;2022-12-18T05:30:42;100802.44;;;2.68;100.00
44934;BME280;30667;43.614;1.442;2022-12-18T05:33:08;100804.69;;;2.58;100.00
44934;BME280;30667;43.614;1.442;2022-12-18T05:35:33;100804.69;;;2.51;100.00
44934;BME280;30667;43.614;1.442;2022-12-18T05:37:58;100804.06;;;2.35;100.00
44934;BME280;30667;43.614;1.442;2022-12-18T05:40:24;100804.66;;;2.31;100.00
44934;BME280;30667;43.614;1.442;2022-12-18T05:42:49;100805.91;;;2.35;100.00
44934;BME280;30667;43.614;1.442;2022-12-18T05:45:15;100814.13;;;2.33;100.00
44934;BME280;30667;43.614;1.442;2022-12-18T05:47:40;100809.59;;;2.27;100.00
44934;BME280;30667;43.614;1.442;2022-12-18T05:50:06;100822.75;;;2.29;100.00
44934;BME280;30667;43.614;1.442;2022-12-18T05:52:32;100816.81;;;2.27;100.00
44934;BME280;30667;43.614;1.442;2022-12-18T05:54:57;100810.81;;;2.25;100.00
44934;BME280;30667;43.614;1.442;2022-12-18T05:57:24;100815.75;;;2.21;100.00
44934;BME280;30667;43.614;1.442;2022-12-18T05:59:49;100819.69;;;2.32;100.00
44934;BME280;30667;43.614;1.442;2022-12-18T06:02:15;100808.78;;;2.27;100.00
44934;BME280;30667;43.614;1.442;2022-12-18T06:04:40;100802.44;;;2.41;100.00
44934;BME280;30667;43.614;1.442;2022-12-18T06:07:05;100813.72;;;2.50;100.00
44934;BME280;30667;43.614;1.442;2022-12-18T06:09:31;100803.44;;;2.53;100.00
44934;BME280;30667;43.614;1.442;2022-12-18T06:11:57;100796.88;;;2.56;100.00
44934;BME280;30667;43.614;1.442;2022-12-18T06:14:22;100803.03;;;2.57;100.00
44934;BME280;30667;43.614;1.442;2022-12-18T06:16:50;100807.38;;;2.58;100.00
44934;BME280;30667;43.614;1.442;2022-12-18T06:19:16;100824.41;;;2.43;100.00
44934;BME280;30667;43.614;1.442;2022-12-18T06:21:41;100826.25;;;2.36;100.00
44934;BME280;30667;43.614;1.442;2022-12-18T06:24:07;100822.56;;;2.30;100.00
44934;BME280;30667;43.614;1.442;2022-12-18T06:26:32;100823.75;;;2.28;100.00
44934;BME280;30667;43.614;1.442;2022-12-18T06:28:58;100821.72;;;2.30;100.00
44934;BME280;30667;43.614;1.442;2022-12-18T06:31:24;100824.19;;;2.31;100.00
44934;BME280;30667;43.614;1.442;2022-12-18T06:33:49;100825.00;;;2.25;100.00
44934;BME280;30667;43.614;1.442;2022-12-18T06:36:15;100821.50;;;2.25;100.00
44934;BME280;30667;43.614;1.442;2022-12-18T06:38:42;100828.91;;;2.23;100.00
44934;BME280;30667;43.614;1.442;2022-12-18T06:41:14;100831.38;;;2.24;100.00
44934;BME280;30667;43.614;1.442;2022-12-18T06:43:39;100827.47;;;2.27;100.00
44934;BME280;30667;43.614;1.442;2022-12-18T06:46:05;100822.75;;;2.29;100.00
44934;BME280;30667;43.614;1.442;2022-12-18T06:48:31;100831.16;;;2.26;100.00
44934;BME280;30667;43.614;1.442;2022-12-18T06:50:57;100823.56;;;2.23;100.00
44934;BME280;30667;43.614;1.442;2022-12-18T06:53:23;100818.63;;;2.20;100.00
44934;BME280;30667;43.614;1.442;2022-12-18T06:55:48;100824.78;;;2.20;100.00
44934;BME280;30667;43.614;1.442;2022-12-18T06:58:14;100820.47;;;2.26;100.00
44934;BME280;30667;43.614;1.442;2022-12-18T07:00:39;100820.91;;;2.29;100.00
44934;BME280;30667;43.614;1.442;2022-12-18T07:03:05;100812.88;;;2.36;100.00
44934;BME280;30667;43.614;1.442;2022-12-18T07:05:30;100811.25;;;2.42;100.00
44934;BME280;30667;43.614;1.442;2022-12-18T07:07:56;100813.72;;;2.43;100.00
44934;BME280;30667;43.614;1.442;2022-12-18T07:10:21;100811.25;;;2.35;100.00
44934;BME280;30667;43.614;1.442;2022-12-18T07:12:46;100817.22;;;2.37;100.00
44934;BME280;30667;43.614;1.442;2022-12-18T07:15:12;100815.38;;;2.44;100.00
44934;BME280;30667;43.614;1.442;2022-12-18T07:17:37;100812.06;;;2.35;100.00
44934;BME280;30667;43.614;1.442;2022-12-18T07:20:03;100801.41;;;2.42;100.00
44934;BME280;30667;43.614;1.442;2022-12-18T07:22:29;100806.31;;;2.45;100.00
44934;BME280;30667;43.614;1.442;2022-12-18T07:24:54;100793.38;;;2.42;100.00
44934;BME280;30667;43.614;1.442;2022-12-18T07:27:20;100786.63;;;2.40;100.00
44934;BME280;30667;43.614;1.442;2022-12-18T07:29:46;100787.84;;;2.37;100.00
44934;BME280;30667;43.614;1.442;2022-12-18T07:32:11;100787.44;;;2.40;100.00
44934;BME280;30667;43.614;1.442;2022-12-18T07:34:37;100798.50;;;2.30;100.00
44934;BME280;30667;43.614;1.442;2022-12-18T07:37:02;100801.78;;;2.26;100.00
44934;BME280;30667;43.614;1.442;2022-12-18T07:39:28;100807.13;;;2.26;100.00
44934;BME280;30667;43.614;1.442;2022-12-18T07:41:53;100807.94;;;2.33;100.00
44934;BME280;30667;43.614;1.442;2022-12-18T07:44:37;100811.25;;;2.35;100.00
44934;BME280;30667;43.614;1.442;2022-12-18T07:47:04;100803.44;;;2.33;100.00
44934;BME280;30667;43.614;1.442;2022-12-18T07:49:29;100800.56;;;2.35;100.00
44934;BME280;30667;43.614;1.442;2022-12-18T07:51:56;100812.50;;;2.46;100.00
44934;BME280;30667;43.614;1.442;2022-12-18T07:54:23;100815.78;;;2.48;100.00
44934;BME280;30667;43.614;1.442;2022-12-18T07:56:49;100818.25;;;2.56;100.00
44934;BME280;30667;43.614;1.442;2022-12-18T07:59:15;100818.88;;;2.51;100.00
44934;BME280;30667;43.614;1.442;2022-12-18T08:01:40;100815.59;;;2.49;100.00
44934;BME280;30667;43.614;1.442;2022-12-18T08:04:05;100836.34;;;2.54;100.00
44934;BME280;30667;43.614;1.442;2022-12-18T08:06:31;100841.91;;;2.52;100.00
44934;BME280;30667;43.614;1.442;2022-12-18T08:08:57;100843.97;;;2.57;100.00
44934;BME280;30667;43.614;1.442;2022-12-18T08:11:24;100838.63;;;2.57;100.00
44934;BME280;30667;43.614;1.442;2022-12-18T08:13:50;100831.00;;;2.54;100.00
44934;BME280;30667;43.614;1.442;2022-12-18T08:16:16;100831.22;;;2.66;100.00
44934;BME280;30667;43.614;1.442;2022-12-18T08:18:42;100828.94;;;2.69;100.00
44934;BME280;30667;43.614;1.442;2022-12-18T08:21:11;100828.53;;;2.72;100.00
44934;BME280;30667;43.614;1.442;2022-12-18T08:23:37;100823.19;;;2.79;100.00
44934;BME280;30667;43.614;1.442;2022-12-18T08:26:02;100826.88;;;2.85;100.00
44934;BME280;30667;43.614;1.442;2022-12-18T08:28:28;100828.31;;;2.74;100.00
44934;BME280;30667;43.614;1.442;2022-12-18T08:30:53;100835.53;;;2.80;100.00
44934;BME280;30667;43.614;1.442;2022-12-18T08:33:19;100837.19;;;2.81;100.00
44934;BME280;30667;43.614;1.442;2022-12-18T08:35:44;100829.56;;;2.85;100.00
44934;BME280;30667;43.614;1.442;2022-12-18T08:38:09;100821.13;;;2.95;100.00
44934;BME280;30667;43.614;1.442;2022-12-18T08:40:35;100809.63;;;2.87;100.00
44934;BME280;30667;43.614;1.442;2022-12-18T08:43:00;100807.75;;;2.95;100.00
44934;BME280;30667;43.614;1.442;2022-12-18T08:45:44;100812.91;;;2.96;100.00
44934;BME280;30667;43.614;1.442;2022-12-18T08:48:09;100804.88;;;3.09;100.00
44934;BME280;30667;43.614;1.442;2022-12-18T08:50:35;100798.47;;;3.17;100.00
44934;BME280;30667;43.614;1.442;2022-12-18T08:53:00;100811.63;;;3.19;100.00
44934;BME280;30667;43.614;1.442;2022-12-18T08:55:26;100805.41;;;3.32;100.00
44934;BME280;30667;43.614;1.442;2022-12-18T08:57:51;100805.84;;;3.35;100.00
44934;BME280;30667;43.614;1.442;2022-12-18T09:00:17;100810.13;;;3.43;100.00
44934;BME280;30667;43.614;1.442;2022-12-18T09:02:42;100805.38;;;3.52;100.00
44934;BME280;30667;43.614;1.442;2022-12-18T09:05:08;100825.91;;;3.64;100.00
44934;BME280;30667;43.614;1.442;2022-12-18T09:07:34;100814.63;;;4.33;100.00
44934;BME280;30667;43.614;1.442;2022-12-18T09:09:59;100820.38;;;4.36;100.00
44934;BME280;30667;43.614;1.442;2022-12-18T09:12:25;100827.50;;;5.00;100.00
44934;BME280;30667;43.614;1.442;2022-12-18T09:14:50;100828.38;;;5.37;100.00
44934;BME280;30667;43.614;1.442;2022-12-18T09:17:16;100822.94;;;5.62;100.00
44934;BME280;30667;43.614;1.442;2022-12-18T09:19:41;100821.28;;;5.80;100.00
44934;BME280;30667;43.614;1.442;2022-12-18T09:22:06;100828.56;;;5.91;100.00
44934;BME280;30667;43.614;1.442;2022-12-18T09:24:32;100819.66;;;6.09;100.00
44934;BME280;30667;43.614;1.442;2022-12-18T09:26:57;100824.66;;;6.24;100.00
44934;BME280;30667;43.614;1.442;2022-12-18T09:29:24;100825.13;;;6.33;100.00
44934;BME280;30667;43.614;1.442;2022-12-18T09:31:49;100827.47;;;6.41;100.00
44934;BME280;30667;43.614;1.442;2022-12-18T09:34:15;100820.16;;;6.48;100.00
44934;BME280;30667;43.614;1.442;2022-12-18T09:36:41;100813.97;;;6.60;100.00
44934;BME280;30667;43.614;1.442;2022-12-18T09:39:07;100820.03;;;6.67;100.00
44934;BME280;30667;43.614;1.442;2022-12-18T09:41:52;100812.34;;;6.82;100.00
44934;BME280;30667;43.614;1.442;2022-12-18T09:44:35;100798.78;;;6.89;100.00
44934;BME280;30667;43.614;1.442;2022-12-18T09:47:16;100796.66;;;7.15;100.00
44934;BME280;30667;43.614;1.442;2022-12-18T09:49:45;100784.88;;;7.27;100.00
44934;BME280;30667;43.614;1.442;2022-12-18T09:58:07;100789.69;;;7.66;100.00
44934;BME280;30667;43.614;1.442;2022-12-18T10:00:38;100794.84;;;7.68;100.00
44934;BME280;30667;43.614;1.442;2022-12-18T10:03:09;100797.09;;;7.88;100.00
44934;BME280;30667;43.614;1.442;2022-12-18T10:05:37;100789.34;;;7.91;100.00
44934;BME280;30667;43.614;1.442;2022-12-18T10:08:22;100797.88;;;8.00;100.00
44934;BME280;30667;43.614;1.442;2022-12-18T10:10:52;100800.97;;;7.80;100.00
44934;BME280;30667;43.614;1.442;2022-12-18T10:24:26;100810.41;;;8.23;100.00
44934;BME280;30667;43.614;1.442;2022-12-18T10:27:10;100805.91;;;8.58;100.00
44934;BME280;30667;43.614;1.442;2022-12-18T10:29:37;100824.06;;;8.62;100.00
44934;BME280;30667;43.614;1.442;2022-12-18T10:32:03;100820.56;;;8.33;100.00
44934;BME280;30667;43.614;1.442;2022-12-18T10:34:28;100810.31;;;8.47;100.00
44934;BME280;30667;43.614;1.442;2022-12-18T10:36:54;100817.28;;;8.31;100.00
44934;BME280;30667;43.614;1.442;2022-12-18T10:39:23;100822.19;;;8.34;100.00
44934;BME280;30667;43.614;1.442;2022-12-18T10:41:48;100808.22;;;8.49;100.00
44934;BME280;30667;43.614;1.442;2022-12-18T10:44:21;100821.38;;;8.33;100.00
44934;BME280;30667;43.614;1.442;2022-12-18T10:46:49;100813.94;;;8.24;100.00
44934;BME280;30667;43.614;1.442;2022-12-18T10:49:29;100813.09;;;8.23;100.00
44934;BME280;30667;43.614;1.442;2022-12-18T10:52:15;100821.94;;;8.35;100.00
44934;BME280;30667;43.614;1.442;2022-12-18T10:55:12;100809.31;;;8.36;100.00
44934;BME280;30667;43.614;1.442;2022-12-18T10:57:41;100808.94;;;8.32;100.00
44934;BME280;30667;43.614;1.442;2022-12-18T11:00:29;100808.19;;;8.66;100.00
44934;BME280;30667;43.614;1.442;2022-12-18T11:02:55;100789.81;;;8.46;100.00
44934;BME280;30667;43.614;1.442;2022-12-18T11:05:25;100790.06;;;8.44;100.00
44934;BME280;30667;43.614;1.442;2022-12-18T11:07:51;100790.66;;;9.02;100.00
44934;BME280;30667;43.614;1.442;2022-12-18T11:10:21;100783.88;;;9.00;100.00
44934;BME280;30667;43.614;1.442;2022-12-18T11:12:47;100784.78;;;8.88;100.00
44934;BME280;30667;43.614;1.442;2022-12-18T11:15:19;100792.97;;;8.94;100.00
44934;BME280;30667;43.614;1.442;2022-12-18T11:17:48;100785.50;;;9.62;100.00
44934;BME280;30667;43.614;1.442;2022-12-18T11:20:34;100790.28;;;9.55;100.00
44934;BME280;30667;43.614;1.442;2022-12-18T11:23:03;100780.09;;;9.62;100.00
44934;BME280;30667;43.614;1.442;2022-12-18T11:25:30;100773.38;;;9.42;100.00
44934;BME280;30667;43.614;1.442;2022-12-18T11:28:00;100761.16;;;9.62;100.00
44934;BME280;30667;43.614;1.442;2022-12-18T11:30:29;100745.66;;;9.30;100.00
44934;BME280;30667;43.614;1.442;2022-12-18T11:33:15;100733.75;;;9.48;100.00
44934;BME280;30667;43.614;1.442;2022-12-18T11:35:51;100726.25;;;9.55;100.00
44934;BME280;30667;43.614;1.442;2022-12-18T11:38:24;100723.78;;;10.08;100.00
44934;BME280;30667;43.614;1.442;2022-12-18T11:43:35;100715.81;;;9.64;100.00
44934;BME280;30667;43.614;1.442;2022-12-18T11:46:13;100710.94;;;9.39;100.00
44934;BME280;30667;43.614;1.442;2022-12-18T11:48:53;100717.00;;;9.24;100.00
44934;BME280;30667;43.614;1.442;2022-12-18T11:51:33;100715.84;;;9.42;100.00
44934;BME280;30667;43.614;1.442;2022-12-18T11:54:00;100723.91;;;9.37;100.00
44934;BME280;30667;43.614;1.442;2022-12-18T11:56:43;100709.19;;;9.27;100.00
44934;BME280;30667;43.614;1.442;2022-12-18T11:59:46;100715.03;;;9.41;100.00
44934;BME280;30667;43.614;1.442;2022-12-18T12:08:22;100724.69;;;9.15;100.00
44934;BME280;30667;43.614;1.442;2022-12-18T12:14:12;100714.00;;;9.48;100.00
44934;BME280;30667;43.614;1.442;2022-12-18T12:17:17;100704.97;;;9.86;100.00
44934;BME280;30667;43.614;1.442;2022-12-18T12:28:50;100696.03;;;9.86;100.00
44934;BME280;30667;43.614;1.442;2022-12-18T12:36:21;100699.63;;;10.29;100.00
44934;BME280;30667;43.614;1.442;2022-12-18T12:38:54;100689.53;;;10.14;100.00
44934;BME280;30667;43.614;1.442;2022-12-18T12:41:26;100690.81;;;10.39;100.00
44934;BME280;30667;43.614;1.442;2022-12-18T12:44:51;100691.81;;;10.00;100.00
44934;BME280;30667;43.614;1.442;2022-12-18T12:47:31;100682.00;;;9.89;100.00
44934;BME280;30667;43.614;1.442;2022-12-18T12:50:01;100683.13;;;9.93;100.00
44934;BME280;30667;43.614;1.442;2022-12-18T12:52:37;100689.75;;;10.07;100.00
44934;BME280;30667;43.614;1.442;2022-12-18T12:55:12;100686.94;;;9.97;100.00
44934;BME280;30667;43.614;1.442;2022-12-18T12:57:40;100679.56;;;10.20;100.00
44934;BME280;30667;43.614;1.442;2022-12-18T13:07:59;100686.31;;;10.17;100.00
44934;BME280;30667;43.614;1.442;2022-12-18T13:10:47;100694.31;;;10.07;100.00
44934;BME280;30667;43.614;1.442;2022-12-18T13:13:14;100697.94;;;9.85;100.00
44934;BME280;30667;43.614;1.442;2022-12-18T13:16:06;100704.34;;;9.79;100.00
44934;BME280;30667;43.614;1.442;2022-12-18T13:18:32;100708.94;;;9.78;100.00
44934;BME280;30667;43.614;1.442;2022-12-18T13:30:57;100696.88;;;9.86;100.00
44934;BME280;30667;43.614;1.442;2022-12-18T13:38:36;100687.09;;;10.17;100.00
44934;BME280;30667;43.614;1.442;2022-12-18T13:41:25;100688.91;;;10.34;100.00
44934;BME280;30667;43.614;1.442;2022-12-18T13:44:31;100705.06;;;10.61;100.00
44934;BME280;30667;43.614;1.442;2022-12-18T13:46:55;100688.44;;;10.47;100.00
44934;BME280;30667;43.614;1.442;2022-12-18T13:49:38;100690.09;;;10.48;100.00
44934;BME280;30667;43.614;1.442;2022-12-18T13:52:26;100700.31;;;10.84;100.00
44934;BME280;30667;43.614;1.442;2022-12-18T13:54:55;100685.13;;;10.83;100.00
44934;BME280;30667;43.614;1.442;2022-12-18T13:57:33;100682.00;;;10.53;100.00
44934;BME280;30667;43.614;1.442;2022-12-18T14:02:46;100679.78;;;10.45;100.00
44934;BME280;30667;43.614;1.442;2022-12-18T14:05:42;100680.19;;;10.64;100.00
44934;BME280;30667;43.614;1.442;2022-12-18T14:08:13;100674.31;;;10.88;100.00
44934;BME280;30667;43.614;1.442;2022-12-18T14:10:45;100673.63;;;10.55;100.00
44934;BME280;30667;43.614;1.442;2022-12-18T14:13:33;100668.50;;;10.21;100.00
44934;BME280;30667;43.614;1.442;2022-12-18T14:16:01;100688.03;;;10.66;100.00
44934;BME280;30667;43.614;1.442;2022-12-18T14:21:04;100683.72;;;10.70;100.00
44934;BME280;30667;43.614;1.442;2022-12-18T14:26:17;100675.84;;;10.68;100.00
44934;BME280;30667;43.614;1.442;2022-12-18T14:28:44;100670.56;;;10.94;100.00
44934;BME280;30667;43.614;1.442;2022-12-18T14:31:20;100666.56;;;11.07;100.00
44934;BME280;30667;43.614;1.442;2022-12-18T14:33:46;100661.88;;;10.87;100.00
44934;BME280;30667;43.614;1.442;2022-12-18T14:36:16;100668.09;;;10.82;100.00
44934;BME280;30667;43.614;1.442;2022-12-18T14:38:42;100665.28;;;10.62;100.00
44934;BME280;30667;43.614;1.442;2022-12-18T14:41:13;100665.13;;;10.84;100.00
44934;BME280;30667;43.614;1.442;2022-12-18T14:43:41;100669.72;;;10.83;100.00
44934;BME280;30667;43.614;1.442;2022-12-18T14:46:26;100681.97;;;10.96;100.00
44934;BME280;30667;43.614;1.442;2022-12-18T14:48:53;100689.00;;;10.97;100.00